sensor_id;sensor_type;location;lat;lon;timestamp;pressure;altitude;pressure_sealevel;temperature;humidity
79131;BME280;68530;45.194;9.142;2023-03-17T18:28:40;101028.22;;;20.91;nan
79131;BME280;68530;45.194;9.142;2023-03-17T18:31:09;101025.31;;;20.81;nan
79131;BME280;68530;45.194;9.142;2023-03-17T18:33:37;101020.72;;;20.83;nan
79131;BME280;68530;45.194;9.142;2023-03-17T18:36:03;101019.94;;;20.81;nan
79131;BME280;68530;45.194;9.142;2023-03-17T18:38:33;101025.31;;;20.81;nan
79131;BME280;68530;45.194;9.142;2023-03-17T18:40:59;101028.31;;;20.76;nan
79131;BME280;68530;45.194;9.142;2023-03-17T18:43:25;101023.69;;;20.78;nan
79131;BME280;68530;45.194;9.142;2023-03-17T18:45:50;101026.06;;;20.83;nan
79131;BME280;68530;45.194;9.142;2023-03-17T18:48:16;101019.94;;;20.81;nan
79131;BME280;68530;45.194;9.142;2023-03-17T18:50:41;101023.28;;;20.84;nan
79131;BME280;68530;45.194;9.142;2023-03-17T18:53:07;101025.84;;;20.86;nan
79131;BME280;68530;45.194;9.142;2023-03-17T18:55:32;101019.53;;;20.87;nan
79131;BME280;68530;45.194;9.142;2023-03-17T18:57:58;101019.53;;;20.87;nan
79131;BME280;68530;45.194;9.142;2023-03-17T19:00:23;101016.84;;;20.87;nan
79131;BME280;68530;45.194;9.142;2023-03-17T19:02:50;101025.53;;;20.91;nan
79131;BME280;68530;45.194;9.142;2023-03-17T19:05:16;101020.03;;;20.92;nan
79131;BME280;68530;45.194;9.142;2023-03-17T19:07:41;101020.78;;;20.94;nan
79131;BME280;68530;45.194;9.142;2023-03-17T19:10:09;101017.03;;;20.97;nan
79131;BME280;68530;45.194;9.142;2023-03-17T19:12:35;101020.28;;;21.13;nan
79131;BME280;68530;45.194;9.142;2023-03-17T19:15:01;101021.13;;;21.14;nan
79131;BME280;68530;45.194;9.142;2023-03-17T19:17:27;101023.31;;;21.09;nan
79131;BME280;68530;45.194;9.142;2023-03-17T19:19:52;101021.81;;;21.05;nan
79131;BME280;68530;45.194;9.142;2023-03-17T19:22:18;101021.81;;;21.05;nan
79131;BME280;68530;45.194;9.142;2023-03-17T19:24:43;101022.66;;;21.05;nan
79131;BME280;68530;45.194;9.142;2023-03-17T19:27:10;101024.50;;;21.05;nan
79131;BME280;68530;45.194;9.142;2023-03-17T19:29:35;101011.56;;;20.98;nan
79131;BME280;68530;45.194;9.142;2023-03-17T19:32:01;101008.88;;;20.98;nan
79131;BME280;68530;45.194;9.142;2023-03-17T19:34:26;101014.84;;;21.02;nan
79131;BME280;68530;45.194;9.142;2023-03-17T19:36:52;101019.16;;;21.05;nan
79131;BME280;68530;45.194;9.142;2023-03-17T19:39:17;101020.84;;;21.06;nan
79131;BME280;68530;45.194;9.142;2023-03-17T19:41:43;101022.47;;;21.08;nan
79131;BME280;68530;45.194;9.142;2023-03-17T19:44:08;101026.00;;;21.09;nan
79131;BME280;68530;45.194;9.142;2023-03-17T19:46:35;101023.44;;;21.07;nan
79131;BME280;68530;45.194;9.142;2023-03-17T19:49:01;101018.91;;;21.08;nan
79131;BME280;68530;45.194;9.142;2023-03-17T19:51:27;101012.81;;;21.06;nan
79131;BME280;68530;45.194;9.142;2023-03-17T19:53:53;101019.16;;;21.05;nan
79131;BME280;68530;45.194;9.142;2023-03-17T19:56:19;101022.16;;;21.00;nan
79131;BME280;68530;45.194;9.142;2023-03-17T19:58:45;101019.25;;;21.03;nan
79131;BME280;68530;45.194;9.142;2023-03-17T20:01:11;101024.75;;;21.01;nan
79131;BME280;68530;45.194;9.142;2023-03-17T20:03:37;101029.13;;;21.03;nan
79131;BME280;68530;45.194;9.142;2023-03-17T20:06:07;101029.13;;;21.03;nan
79131;BME280;68530;45.194;9.142;2023-03-17T20:08:33;101022.16;;;21.00;nan
79131;BME280;68530;45.194;9.142;2023-03-17T20:10:59;101033.03;;;20.85;nan
79131;BME280;68530;45.194;9.142;2023-03-17T20:13:25;101039.25;;;20.86;nan
79131;BME280;68530;45.194;9.142;2023-03-17T20:15:50;101022.94;;;20.89;nan
79131;BME280;68530;45.194;9.142;2023-03-17T20:18:17;101024.44;;;20.93;nan
79131;BME280;68530;45.194;9.142;2023-03-17T20:20:53;101024.44;;;20.93;nan
79131;BME280;68530;45.194;9.142;2023-03-17T20:23:19;101025.41;;;20.92;nan
79131;BME280;68530;45.194;9.142;2023-03-17T20:25:46;101022.72;;;20.92;nan
79131;BME280;68530;45.194;9.142;2023-03-17T20:28:14;101021.78;;;20.41;nan
79131;BME280;68530;45.194;9.142;2023-03-17T20:30:41;101023.81;;;19.99;nan
79131;BME280;68530;45.194;9.142;2023-03-17T20:33:09;101019.78;;;20.32;nan
79131;BME280;68530;45.194;9.142;2023-03-17T20:35:38;101020.94;;;20.54;nan
79131;BME280;68530;45.194;9.142;2023-03-17T20:38:04;101019.19;;;20.66;nan
79131;BME280;68530;45.194;9.142;2023-03-17T20:40:29;101029.38;;;20.73;nan
79131;BME280;68530;45.194;9.142;2023-03-17T20:42:55;101020.13;;;20.78;nan
79131;BME280;68530;45.194;9.142;2023-03-17T20:45:21;101017.59;;;20.63;nan
79131;BME280;68530;45.194;9.142;2023-03-17T20:47:47;101027.47;;;20.50;nan
79131;BME280;68530;45.194;9.142;2023-03-17T20:50:13;101018.91;;;20.44;nan
79131;BME280;68530;45.194;9.142;2023-03-17T20:52:39;101026.09;;;20.44;nan
79131;BME280;68530;45.194;9.142;2023-03-17T20:55:07;101023.72;;;20.39;nan
79131;BME280;68530;45.194;9.142;2023-03-17T20:57:34;101021.16;;;20.38;nan
79131;BME280;68530;45.194;9.142;2023-03-17T21:00:00;101021.38;;;20.35;nan
79131;BME280;68530;45.194;9.142;2023-03-17T21:02:26;101021.28;;;20.36;nan
79131;BME280;68530;45.194;9.142;2023-03-17T21:04:53;101008.84;;;20.35;nan
79131;BME280;68530;45.194;9.142;2023-03-17T21:07:20;101018.28;;;20.41;nan
79131;BME280;68530;45.194;9.142;2023-03-17T21:09:46;101012.28;;;20.37;nan
79131;BME280;68530;45.194;9.142;2023-03-17T21:12:14;101015.16;;;20.34;nan
79131;BME280;68530;45.194;9.142;2023-03-17T21:14:40;101021.06;;;20.39;nan
79131;BME280;68530;45.194;9.142;2023-03-17T21:17:07;101022.00;;;20.38;nan
79131;BME280;68530;45.194;9.142;2023-03-17T21:19:33;101018.69;;;20.35;nan
79131;BME280;68530;45.194;9.142;2023-03-17T21:21:59;101007.31;;;20.31;nan
79131;BME280;68530;45.194;9.142;2023-03-17T21:24:30;101015.34;;;20.31;nan
79131;BME280;68530;45.194;9.142;2023-03-17T21:27:01;101010.34;;;20.26;nan
79131;BME280;68530;45.194;9.142;2023-03-17T21:29:28;101009.06;;;20.32;nan
79131;BME280;68530;45.194;9.142;2023-03-17T21:31:54;101012.91;;;20.28;nan
79131;BME280;68530;45.194;9.142;2023-03-17T21:34:22;101009.25;;;20.29;nan
79131;BME280;68530;45.194;9.142;2023-03-17T21:36:49;101015.47;;;20.29;nan
79131;BME280;68530;45.194;9.142;2023-03-17T21:39:15;101006.94;;;20.24;nan
79131;BME280;68530;45.194;9.142;2023-03-17T21:41:42;101014.84;;;20.26;nan
79131;BME280;68530;45.194;9.142;2023-03-17T21:44:08;101015.78;;;20.25;nan
79131;BME280;68530;45.194;9.142;2023-03-17T21:46:36;101013.78;;;20.28;nan
79131;BME280;68530;45.194;9.142;2023-03-17T21:49:02;101021.16;;;20.25;nan
79131;BME280;68530;45.194;9.142;2023-03-17T21:51:28;101022.78;;;20.27;nan
79131;BME280;68530;45.194;9.142;2023-03-17T21:53:54;101016.53;;;20.27;nan
79131;BME280;68530;45.194;9.142;2023-03-17T21:56:20;101019.22;;;20.27;nan
79131;BME280;68530;45.194;9.142;2023-03-17T21:58:46;101017.72;;;20.23;nan
79131;BME280;68530;45.194;9.142;2023-03-17T22:01:14;101019.22;;;20.27;nan
79131;BME280;68530;45.194;9.142;2023-03-17T22:03:40;101020.19;;;20.26;nan
79131;BME280;68530;45.194;9.142;2023-03-17T22:06:08;101017.63;;;20.24;nan
79131;BME280;68530;45.194;9.142;2023-03-17T22:08:33;101014.84;;;20.26;nan
79131;BME280;68530;45.194;9.142;2023-03-17T22:10:59;101010.00;;;20.31;nan
79131;BME280;68530;45.194;9.142;2023-03-17T22:13:25;101018.03;;;20.31;nan
79131;BME280;68530;45.194;9.142;2023-03-17T22:15:50;101017.41;;;20.27;nan
79131;BME280;68530;45.194;9.142;2023-03-17T22:18:16;101014.84;;;20.26;nan
79131;BME280;68530;45.194;9.142;2023-03-17T22:20:42;101015.69;;;20.26;nan
79131;BME280;68530;45.194;9.142;2023-03-17T22:23:09;101011.19;;;20.27;nan
79131;BME280;68530;45.194;9.142;2023-03-17T22:25:36;101007.97;;;20.22;nan
79131;BME280;68530;45.194;9.142;2023-03-17T22:28:01;101011.19;;;20.27;nan
79131;BME280;68530;45.194;9.142;2023-03-17T22:30:26;101009.47;;;20.26;nan
79131;BME280;68530;45.194;9.142;2023-03-17T22:32:52;101013.13;;;20.25;nan
79131;BME280;68530;45.194;9.142;2023-03-17T22:35:17;101010.22;;;20.28;nan
79131;BME280;68530;45.194;9.142;2023-03-17T22:37:45;101006.94;;;20.24;nan
79131;BME280;68530;45.194;9.142;2023-03-17T22:40:11;101003.28;;;20.25;nan
79131;BME280;68530;45.194;9.142;2023-03-17T22:42:37;101004.88;;;20.28;nan
79131;BME280;68530;45.194;9.142;2023-03-17T22:45:02;101003.91;;;20.29;nan
79131;BME280;68530;45.194;9.142;2023-03-17T22:47:28;101005.84;;;20.27;nan
79131;BME280;68530;45.194;9.142;2023-03-17T22:49:54;101001.66;;;20.23;nan
79131;BME280;68530;45.194;9.142;2023-03-17T22:52:20;101002.41;;;20.25;nan
79131;BME280;68530;45.194;9.142;2023-03-17T22:54:45;101004.25;;;20.24;nan
79131;BME280;68530;45.194;9.142;2023-03-17T22:57:10;100999.06;;;20.21;nan
79131;BME280;68530;45.194;9.142;2023-03-17T22:59:36;101010.34;;;20.26;nan
79131;BME280;68530;45.194;9.142;2023-03-17T23:02:01;101005.09;;;20.25;nan
79131;BME280;68530;45.194;9.142;2023-03-17T23:04:27;101011.09;;;20.28;nan
79131;BME280;68530;45.194;9.142;2023-03-17T23:06:52;101015.56;;;20.28;nan
79131;BME280;68530;45.194;9.142;2023-03-17T23:09:18;101017.28;;;20.29;nan
79131;BME280;68530;45.194;9.142;2023-03-17T23:11:44;101011.41;;;20.24;nan
79131;BME280;68530;45.194;9.142;2023-03-17T23:14:10;101011.41;;;20.24;nan
79131;BME280;68530;45.194;9.142;2023-03-17T23:16:37;101003.38;;;20.24;nan
79131;BME280;68530;45.194;9.142;2023-03-17T23:19:04;101012.28;;;20.24;nan
79131;BME280;68530;45.194;9.142;2023-03-17T23:21:32;101013.13;;;20.25;nan
79131;BME280;68530;45.194;9.142;2023-03-17T23:23:59;101013.34;;;20.22;nan
79131;BME280;68530;45.194;9.142;2023-03-17T23:26:25;101011.41;;;20.24;nan
79131;BME280;68530;45.194;9.142;2023-03-17T23:28:51;101007.75;;;20.25;nan
79131;BME280;68530;45.194;9.142;2023-03-17T23:31:17;101008.72;;;20.24;nan
79131;BME280;68530;45.194;9.142;2023-03-17T23:33:44;101011.41;;;20.24;nan
79131;BME280;68530;45.194;9.142;2023-03-17T23:36:11;101014.19;;;20.22;nan
79131;BME280;68530;45.194;9.142;2023-03-17T23:38:39;101006.94;;;20.24;nan
79131;BME280;68530;45.194;9.142;2023-03-17T23:41:04;101014.19;;;20.22;nan
79131;BME280;68530;45.194;9.142;2023-03-17T23:43:31;101013.13;;;20.25;nan
79131;BME280;68530;45.194;9.142;2023-03-17T23:45:58;101021.28;;;20.23;nan
79131;BME280;68530;45.194;9.142;2023-03-17T23:48:24;101012.38;;;20.23;nan
79131;BME280;68530;45.194;9.142;2023-03-17T23:50:51;101017.72;;;20.23;nan
79131;BME280;68530;45.194;9.142;2023-03-17T23:53:17;101012.28;;;20.24;nan
79131;BME280;68530;45.194;9.142;2023-03-17T23:55:43;101015.06;;;20.23;nan
79131;BME280;68530;45.194;9.142;2023-03-17T23:58:09;101018.59;;;20.23;nan
